Hopeton, Oklahoma
Current Conditions -  °F | °C
As of 2:30 PM on Friday 21 Nov 2014 (Local Time) from KAVK Reporting Station
Haze Haze  
Wind Chill: 39°   Ceiling: 500
Heat Index: 39°   Visibility: 4mi
Dew Point: 39°   Wind: 0mph
Humidity: 100%   Direction: NA
Pressure: 30.03"   Gusts: NA
Location:  36.69°N, 98.67°W
Report Text: KAVK 212030Z AUTO 00000KT 4SM BR OVC005 04/04 A3003 RMK AO2
Loading
Personal Weather Stations






























Interactive Weather Map New forecast layout! Learn more

10-Day Weather Forecast

Advertisements
Track Severe Weather on mobile